sensor_id;sensor_type;location;lat;lon;timestamp;pressure;altitude;pressure_sealevel;temperature;humidity
36630;BME280;36256;42.154;23.002;2023-04-23T00:01:41;97150.47;;;8.93;100.00
36630;BME280;36256;42.154;23.002;2023-04-23T00:04:07;97156.50;;;8.92;100.00
36630;BME280;36256;42.154;23.002;2023-04-23T00:06:34;97155.50;;;8.86;100.00
36630;BME280;36256;42.154;23.002;2023-04-23T00:09:01;97152.38;;;8.84;100.00
36630;BME280;36256;42.154;23.002;2023-04-23T00:11:29;97156.97;;;8.90;100.00
36630;BME280;36256;42.154;23.002;2023-04-23T00:13:55;97156.84;;;8.94;100.00
36630;BME280;36256;42.154;23.002;2023-04-23T00:16:22;97161.88;;;8.86;99.60
36630;BME280;36256;42.154;23.002;2023-04-23T00:18:50;97158.97;;;8.77;99.97
36630;BME280;36256;42.154;23.002;2023-04-23T00:21:16;97157.75;;;8.78;100.00
36630;BME280;36256;42.154;23.002;2023-04-23T00:23:43;97155.16;;;8.71;100.00
36630;BME280;36256;42.154;23.002;2023-04-23T00:26:09;97155.34;;;8.64;100.00
36630;BME280;36256;42.154;23.002;2023-04-23T00:28:36;97161.84;;;8.61;100.00
36630;BME280;36256;42.154;23.002;2023-04-23T00:31:02;97163.16;;;8.56;100.00
36630;BME280;36256;42.154;23.002;2023-04-23T00:33:29;97164.31;;;8.59;100.00
36630;BME280;36256;42.154;23.002;2023-04-23T00:35:55;97161.50;;;8.59;100.00
36630;BME280;36256;42.154;23.002;2023-04-23T00:38:21;97156.09;;;8.52;100.00
36630;BME280;36256;42.154;23.002;2023-04-23T00:40:48;97163.72;;;8.51;100.00
36630;BME280;36256;42.154;23.002;2023-04-23T00:43:15;97163.63;;;8.55;100.00
36630;BME280;36256;42.154;23.002;2023-04-23T00:45:42;97163.63;;;8.55;100.00
36630;BME280;36256;42.154;23.002;2023-04-23T00:48:09;97164.97;;;8.63;100.00
36630;BME280;36256;42.154;23.002;2023-04-23T00:50:36;97166.53;;;8.64;100.00
36630;BME280;36256;42.154;23.002;2023-04-23T00:53:03;97164.78;;;8.70;100.00
36630;BME280;36256;42.154;23.002;2023-04-23T00:55:30;97164.31;;;8.72;99.94
36630;BME280;36256;42.154;23.002;2023-04-23T00:57:56;97167.13;;;8.72;100.00
36630;BME280;36256;42.154;23.002;2023-04-23T01:00:23;97165.53;;;8.70;100.00
36630;BME280;36256;42.154;23.002;2023-04-23T01:02:49;97169.47;;;8.73;99.06
36630;BME280;36256;42.154;23.002;2023-04-23T01:05:18;97165.19;;;8.68;98.47
36630;BME280;36256;42.154;23.002;2023-04-23T01:07:45;97168.13;;;8.65;99.05
36630;BME280;36256;42.154;23.002;2023-04-23T01:10:12;97166.19;;;8.62;99.79
36630;BME280;36256;42.154;23.002;2023-04-23T01:12:39;97166.09;;;8.53;99.90
36630;BME280;36256;42.154;23.002;2023-04-23T01:15:05;97174.31;;;8.44;100.00
36630;BME280;36256;42.154;23.002;2023-04-23T01:17:34;97159.06;;;8.32;100.00
36630;BME280;36256;42.154;23.002;2023-04-23T01:20:00;97157.25;;;8.26;100.00
36630;BME280;36256;42.154;23.002;2023-04-23T01:22:27;97160.84;;;8.26;100.00
36630;BME280;36256;42.154;23.002;2023-04-23T01:24:53;97170.03;;;8.27;100.00
36630;BME280;36256;42.154;23.002;2023-04-23T01:27:20;97167.72;;;8.22;100.00
36630;BME280;36256;42.154;23.002;2023-04-23T01:29:47;97169.50;;;8.16;100.00
36630;BME280;36256;42.154;23.002;2023-04-23T01:32:14;97170.38;;;8.13;100.00
36630;BME280;36256;42.154;23.002;2023-04-23T01:34:41;97172.72;;;8.14;100.00
36630;BME280;36256;42.154;23.002;2023-04-23T01:37:08;97168.13;;;8.08;100.00
36630;BME280;36256;42.154;23.002;2023-04-23T01:39:36;97176.66;;;8.17;100.00
36630;BME280;36256;42.154;23.002;2023-04-23T01:42:03;97183.13;;;8.30;100.00
36630;BME280;36256;42.154;23.002;2023-04-23T01:44:32;97179.19;;;8.27;100.00
36630;BME280;36256;42.154;23.002;2023-04-23T01:46:58;97182.66;;;8.31;100.00
36630;BME280;36256;42.154;23.002;2023-04-23T01:49:25;97187.63;;;8.24;100.00
36630;BME280;36256;42.154;23.002;2023-04-23T01:51:51;97188.00;;;8.26;100.00
36630;BME280;36256;42.154;23.002;2023-04-23T01:54:18;97186.78;;;8.27;100.00
36630;BME280;36256;42.154;23.002;2023-04-23T01:56:44;97189.94;;;8.29;100.00
36630;BME280;36256;42.154;23.002;2023-04-23T01:59:11;97190.28;;;8.31;99.95
36630;BME280;36256;42.154;23.002;2023-04-23T02:01:44;97187.47;;;8.31;98.88
36630;BME280;36256;42.154;23.002;2023-04-23T02:04:13;97188.41;;;8.24;98.50
36630;BME280;36256;42.154;23.002;2023-04-23T02:06:42;97187.41;;;8.18;99.04
36630;BME280;36256;42.154;23.002;2023-04-23T02:09:08;97189.59;;;8.11;99.18
36630;BME280;36256;42.154;23.002;2023-04-23T02:11:35;97189.78;;;8.04;99.20
36630;BME280;36256;42.154;23.002;2023-04-23T02:14:02;97189.44;;;8.02;99.79
36630;BME280;36256;42.154;23.002;2023-04-23T02:16:29;97179.13;;;7.99;100.00
36630;BME280;36256;42.154;23.002;2023-04-23T02:18:56;97187.53;;;7.99;100.00
36630;BME280;36256;42.154;23.002;2023-04-23T02:21:23;97177.94;;;8.00;100.00
36630;BME280;36256;42.154;23.002;2023-04-23T02:23:49;97184.25;;;7.87;100.00
36630;BME280;36256;42.154;23.002;2023-04-23T02:26:16;97178.13;;;7.76;100.00
36630;BME280;36256;42.154;23.002;2023-04-23T02:28:44;97175.34;;;7.76;100.00
36630;BME280;36256;42.154;23.002;2023-04-23T02:31:11;97188.63;;;7.72;99.87
36630;BME280;36256;42.154;23.002;2023-04-23T02:33:37;97185.66;;;7.63;100.00
36630;BME280;36256;42.154;23.002;2023-04-23T02:36:04;97189.50;;;7.53;100.00
36630;BME280;36256;42.154;23.002;2023-04-23T02:38:30;97191.94;;;7.51;100.00
36630;BME280;36256;42.154;23.002;2023-04-23T02:40:57;97187.16;;;7.52;100.00
36630;BME280;36256;42.154;23.002;2023-04-23T02:43:24;97189.50;;;7.53;100.00
36630;BME280;36256;42.154;23.002;2023-04-23T02:45:50;97188.81;;;7.49;100.00
36630;BME280;36256;42.154;23.002;2023-04-23T02:48:17;97194.75;;;7.51;100.00
36630;BME280;36256;42.154;23.002;2023-04-23T02:50:43;97184.97;;;7.43;100.00
36630;BME280;36256;42.154;23.002;2023-04-23T02:53:10;97182.53;;;7.45;100.00
36630;BME280;36256;42.154;23.002;2023-04-23T02:55:36;97187.31;;;7.45;100.00
36630;BME280;36256;42.154;23.002;2023-04-23T02:58:03;97191.22;;;7.31;100.00
36630;BME280;36256;42.154;23.002;2023-04-23T03:00:29;97188.44;;;7.31;100.00
36630;BME280;36256;42.154;23.002;2023-04-23T03:02:56;97188.97;;;7.42;100.00
36630;BME280;36256;42.154;23.002;2023-04-23T03:05:23;97192.09;;;7.44;100.00
36630;BME280;36256;42.154;23.002;2023-04-23T03:07:49;97194.56;;;7.42;100.00
36630;BME280;36256;42.154;23.002;2023-04-23T03:10:16;97197.34;;;7.42;100.00
36630;BME280;36256;42.154;23.002;2023-04-23T03:12:42;97193.75;;;7.42;100.00
36630;BME280;36256;42.154;23.002;2023-04-23T03:15:09;97194.56;;;7.42;100.00
36630;BME280;36256;42.154;23.002;2023-04-23T03:17:36;97186.19;;;7.42;100.00
36630;BME280;36256;42.154;23.002;2023-04-23T03:20:04;97201.28;;;7.45;100.00
36630;BME280;36256;42.154;23.002;2023-04-23T03:22:30;97197.78;;;7.41;100.00
36630;BME280;36256;42.154;23.002;2023-04-23T03:24:57;97196.81;;;7.31;100.00
36630;BME280;36256;42.154;23.002;2023-04-23T03:27:23;97194.03;;;7.31;100.00
36630;BME280;36256;42.154;23.002;2023-04-23T03:29:50;97192.63;;;7.23;100.00
36630;BME280;36256;42.154;23.002;2023-04-23T03:32:16;97193.84;;;7.22;100.00
36630;BME280;36256;42.154;23.002;2023-04-23T03:34:43;97196.31;;;7.20;100.00
36630;BME280;36256;42.154;23.002;2023-04-23T03:37:09;97199.84;;;7.21;100.00
36630;BME280;36256;42.154;23.002;2023-04-23T03:39:36;97206.31;;;7.18;100.00
36630;BME280;36256;42.154;23.002;2023-04-23T03:42:02;97197.66;;;7.12;100.00
36630;BME280;36256;42.154;23.002;2023-04-23T03:44:30;97204.81;;;7.13;100.00
36630;BME280;36256;42.154;23.002;2023-04-23T03:46:56;97218.78;;;7.13;100.00
36630;BME280;36256;42.154;23.002;2023-04-23T03:49:24;97212.91;;;7.07;100.00
36630;BME280;36256;42.154;23.002;2023-04-23T03:51:51;97214.41;;;7.12;100.00
36630;BME280;36256;42.154;23.002;2023-04-23T03:54:18;97212.66;;;7.18;100.00
36630;BME280;36256;42.154;23.002;2023-04-23T03:56:44;97214.50;;;7.25;100.00
36630;BME280;36256;42.154;23.002;2023-04-23T03:59:11;97225.97;;;7.30;100.00
36630;BME280;36256;42.154;23.002;2023-04-23T04:01:37;97223.50;;;7.32;100.00
36630;BME280;36256;42.154;23.002;2023-04-23T04:04:04;97222.22;;;7.37;100.00
36630;BME280;36256;42.154;23.002;2023-04-23T04:06:31;97228.22;;;7.35;100.00
36630;BME280;36256;42.154;23.002;2023-04-23T04:08:58;97232.72;;;7.13;100.00
36630;BME280;36256;42.154;23.002;2023-04-23T04:11:24;97232.03;;;7.09;100.00
36630;BME280;36256;42.154;23.002;2023-04-23T04:13:52;97232.56;;;7.20;100.00
36630;BME280;36256;42.154;23.002;2023-04-23T04:16:18;97238.78;;;7.28;100.00
36630;BME280;36256;42.154;23.002;2023-04-23T04:18:44;97247.75;;;7.35;100.00
36630;BME280;36256;42.154;23.002;2023-04-23T04:21:11;97252.03;;;7.40;100.00
36630;BME280;36256;42.154;23.002;2023-04-23T04:23:38;97251.97;;;7.43;100.00
36630;BME280;36256;42.154;23.002;2023-04-23T04:26:05;97241.91;;;7.46;100.00
36630;BME280;36256;42.154;23.002;2023-04-23T04:28:33;97250.75;;;7.44;100.00
36630;BME280;36256;42.154;23.002;2023-04-23T04:31:01;97260.00;;;7.57;100.00
36630;BME280;36256;42.154;23.002;2023-04-23T04:33:28;97254.59;;;7.66;100.00
36630;BME280;36256;42.154;23.002;2023-04-23T04:35:56;97254.06;;;7.71;100.00
36630;BME280;36256;42.154;23.002;2023-04-23T04:38:22;97256.84;;;7.71;100.00
36630;BME280;36256;42.154;23.002;2023-04-23T04:40:49;97260.00;;;7.73;100.00
36630;BME280;36256;42.154;23.002;2023-04-23T04:43:15;97256.44;;;7.73;100.00
36630;BME280;36256;42.154;23.002;2023-04-23T04:45:42;97266.72;;;7.76;100.00
36630;BME280;36256;42.154;23.002;2023-04-23T04:48:10;97259.25;;;7.73;100.00
36630;BME280;36256;42.154;23.002;2023-04-23T04:50:36;97257.91;;;7.77;100.00
36630;BME280;36256;42.154;23.002;2023-04-23T04:53:02;97267.88;;;7.78;100.00
36630;BME280;36256;42.154;23.002;2023-04-23T04:55:29;97263.91;;;7.92;100.00
36630;BME280;36256;42.154;23.002;2023-04-23T04:57:55;97265.66;;;7.86;100.00
36630;BME280;36256;42.154;23.002;2023-04-23T05:00:27;97262.81;;;7.89;100.00
36630;BME280;36256;42.154;23.002;2023-04-23T05:02:56;97272.22;;;7.96;100.00
36630;BME280;36256;42.154;23.002;2023-04-23T05:05:23;97278.63;;;7.96;100.00
36630;BME280;36256;42.154;23.002;2023-04-23T05:07:50;97276.69;;;7.77;100.00
36630;BME280;36256;42.154;23.002;2023-04-23T05:10:17;97274.31;;;7.75;100.00
36630;BME280;36256;42.154;23.002;2023-04-23T05:12:43;97272.81;;;7.71;100.00
36630;BME280;36256;42.154;23.002;2023-04-23T05:15:10;97271.72;;;7.84;100.00
36630;BME280;36256;42.154;23.002;2023-04-23T05:17:39;97279.22;;;8.04;100.00
36630;BME280;36256;42.154;23.002;2023-04-23T05:20:06;97278.75;;;8.05;100.00
36630;BME280;36256;42.154;23.002;2023-04-23T05:22:39;97277.91;;;8.08;100.00
36630;BME280;36256;42.154;23.002;2023-04-23T05:25:07;97275.34;;;8.14;100.00
36630;BME280;36256;42.154;23.002;2023-04-23T05:27:33;97269.31;;;8.15;100.00
36630;BME280;36256;42.154;23.002;2023-04-23T05:30:01;97273.06;;;8.25;100.00
36630;BME280;36256;42.154;23.002;2023-04-23T05:32:27;97276.03;;;8.18;100.00
36630;BME280;36256;42.154;23.002;2023-04-23T05:34:54;97270.53;;;8.30;100.00
36630;BME280;36256;42.154;23.002;2023-04-23T05:37:21;97276.59;;;8.29;100.00
36630;BME280;36256;42.154;23.002;2023-04-23T05:39:47;97272.44;;;8.49;100.00
36630;BME280;36256;42.154;23.002;2023-04-23T05:42:14;97278.97;;;8.59;100.00
36630;BME280;36256;42.154;23.002;2023-04-23T05:44:40;97282.53;;;8.88;100.00
36630;BME280;36256;42.154;23.002;2023-04-23T05:47:09;97280.94;;;9.16;100.00
36630;BME280;36256;42.154;23.002;2023-04-23T05:49:36;97283.09;;;9.49;100.00
36630;BME280;36256;42.154;23.002;2023-04-23T05:52:03;97281.75;;;9.92;99.20
36630;BME280;36256;42.154;23.002;2023-04-23T05:54:30;97285.31;;;10.52;95.21
36630;BME280;36256;42.154;23.002;2023-04-23T05:56:56;97283.88;;;11.25;90.10
36630;BME280;36256;42.154;23.002;2023-04-23T05:59:23;97285.13;;;11.85;86.70
36630;BME280;36256;42.154;23.002;2023-04-23T06:01:50;97277.13;;;12.23;83.75
36630;BME280;36256;42.154;23.002;2023-04-23T06:04:16;97270.31;;;12.88;80.21
36630;BME280;36256;42.154;23.002;2023-04-23T06:06:43;97274.69;;;12.98;79.38
36630;BME280;36256;42.154;23.002;2023-04-23T06:09:10;97269.81;;;13.85;75.56
36630;BME280;36256;42.154;23.002;2023-04-23T06:11:36;97261.28;;;14.27;71.88
36630;BME280;36256;42.154;23.002;2023-04-23T06:14:03;97255.59;;;14.60;69.24
36630;BME280;36256;42.154;23.002;2023-04-23T06:16:29;97251.34;;;15.17;67.70
36630;BME280;36256;42.154;23.002;2023-04-23T06:18:56;97251.47;;;15.66;66.14
36630;BME280;36256;42.154;23.002;2023-04-23T06:21:23;97246.22;;;15.45;64.45
36630;BME280;36256;42.154;23.002;2023-04-23T06:23:49;97247.88;;;15.51;64.97
36630;BME280;36256;42.154;23.002;2023-04-23T06:26:16;97241.81;;;16.08;63.85
36630;BME280;36256;42.154;23.002;2023-04-23T06:28:43;97243.66;;;15.61;63.32
36630;BME280;36256;42.154;23.002;2023-04-23T06:31:11;97246.22;;;15.59;64.83
36630;BME280;36256;42.154;23.002;2023-04-23T06:33:38;97251.47;;;16.16;61.85
36630;BME280;36256;42.154;23.002;2023-04-23T06:36:04;97244.84;;;16.39;61.00
36630;BME280;36256;42.154;23.002;2023-04-23T06:38:31;97240.94;;;16.71;59.32
36630;BME280;36256;42.154;23.002;2023-04-23T06:40:58;97239.63;;;17.12;58.44
36630;BME280;36256;42.154;23.002;2023-04-23T06:43:24;97237.22;;;16.85;59.62
36630;BME280;36256;42.154;23.002;2023-04-23T06:45:51;97238.66;;;16.75;59.08
36630;BME280;36256;42.154;23.002;2023-04-23T06:48:17;97237.63;;;17.18;58.02
36630;BME280;36256;42.154;23.002;2023-04-23T06:50:44;97232.63;;;16.88;57.88
36630;BME280;36256;42.154;23.002;2023-04-23T06:53:11;97232.13;;;16.89;58.07
36630;BME280;36256;42.154;23.002;2023-04-23T06:55:37;97238.47;;;16.44;59.71
36630;BME280;36256;42.154;23.002;2023-04-23T06:58:04;97241.03;;;17.02;58.92
36630;BME280;36256;42.154;23.002;2023-04-23T07:00:32;97232.47;;;16.97;58.63
36630;BME280;36256;42.154;23.002;2023-04-23T07:02:59;97231.00;;;16.81;58.17
36630;BME280;36256;42.154;23.002;2023-04-23T07:05:25;97226.28;;;17.18;57.04
36630;BME280;36256;42.154;23.002;2023-04-23T07:07:52;97231.56;;;17.57;56.77
36630;BME280;36256;42.154;23.002;2023-04-23T07:10:18;97227.81;;;17.45;55.69
36630;BME280;36256;42.154;23.002;2023-04-23T07:12:45;97232.78;;;17.76;55.87
36630;BME280;36256;42.154;23.002;2023-04-23T07:15:11;97220.88;;;18.14;54.10
36630;BME280;36256;42.154;23.002;2023-04-23T07:17:38;97211.91;;;18.21;54.45
36630;BME280;36256;42.154;23.002;2023-04-23T07:20:04;97220.34;;;18.10;54.15
36630;BME280;36256;42.154;23.002;2023-04-23T07:22:31;97211.25;;;18.37;54.40
36630;BME280;36256;42.154;23.002;2023-04-23T07:24:58;97208.25;;;18.15;54.20
36630;BME280;36256;42.154;23.002;2023-04-23T07:27:25;97208.81;;;18.19;57.43
36630;BME280;36256;42.154;23.002;2023-04-23T07:29:51;97212.50;;;18.31;55.58
36630;BME280;36256;42.154;23.002;2023-04-23T07:32:18;97210.47;;;18.37;54.42
36630;BME280;36256;42.154;23.002;2023-04-23T07:34:45;97205.41;;;18.52;53.69
36630;BME280;36256;42.154;23.002;2023-04-23T07:37:11;97196.69;;;18.77;51.80
36630;BME280;36256;42.154;23.002;2023-04-23T07:39:37;97199.59;;;18.89;51.80
36630;BME280;36256;42.154;23.002;2023-04-23T07:42:06;97193.84;;;18.77;52.05
36630;BME280;36256;42.154;23.002;2023-04-23T07:44:33;97192.28;;;18.65;53.42
36630;BME280;36256;42.154;23.002;2023-04-23T07:47:01;97191.28;;;18.74;51.97
36630;BME280;36256;42.154;23.002;2023-04-23T07:49:27;97193.53;;;18.59;52.87
36630;BME280;36256;42.154;23.002;2023-04-23T07:51:54;97174.22;;;18.68;52.07
36630;BME280;36256;42.154;23.002;2023-04-23T07:54:20;97180.03;;;19.13;51.27
36630;BME280;36256;42.154;23.002;2023-04-23T07:56:49;97176.97;;;19.44;50.89
36630;BME280;36256;42.154;23.002;2023-04-23T07:59:15;97175.88;;;19.30;51.13
36630;BME280;36256;42.154;23.002;2023-04-23T08:01:42;97180.81;;;19.13;51.43
36630;BME280;36256;42.154;23.002;2023-04-23T08:04:08;97173.69;;;18.64;51.95
36630;BME280;36256;42.154;23.002;2023-04-23T08:06:35;97179.06;;;18.57;54.13
36630;BME280;36256;42.154;23.002;2023-04-23T08:09:02;97177.63;;;18.84;54.25
36630;BME280;36256;42.154;23.002;2023-04-23T08:11:32;97174.78;;;18.95;52.49
36630;BME280;36256;42.154;23.002;2023-04-23T08:13:58;97168.91;;;19.15;49.00
36630;BME280;36256;42.154;23.002;2023-04-23T08:16:26;97158.88;;;19.36;49.24
36630;BME280;36256;42.154;23.002;2023-04-23T08:18:53;97160.16;;;19.74;49.55
36630;BME280;36256;42.154;23.002;2023-04-23T08:21:31;97150.56;;;19.71;50.71
36630;BME280;36256;42.154;23.002;2023-04-23T08:23:58;97141.78;;;19.69;50.65
36630;BME280;36256;42.154;23.002;2023-04-23T08:26:25;97141.00;;;19.69;49.02
36630;BME280;36256;42.154;23.002;2023-04-23T08:28:51;97136.63;;;19.51;49.82
36630;BME280;36256;42.154;23.002;2023-04-23T08:31:18;97135.06;;;19.50;48.63
36630;BME280;36256;42.154;23.002;2023-04-23T08:33:51;97134.78;;;19.26;50.51
36630;BME280;36256;42.154;23.002;2023-04-23T08:36:18;97137.91;;;19.61;49.74
36630;BME280;36256;42.154;23.002;2023-04-23T08:38:44;97126.75;;;19.24;50.51
36630;BME280;36256;42.154;23.002;2023-04-23T08:41:12;97120.56;;;19.15;47.53
36630;BME280;36256;42.154;23.002;2023-04-23T08:43:43;97114.78;;;18.70;47.15
36630;BME280;36256;42.154;23.002;2023-04-23T08:46:10;97120.53;;;18.98;47.24
36630;BME280;36256;42.154;23.002;2023-04-23T08:48:37;97105.03;;;19.27;48.73
36630;BME280;36256;42.154;23.002;2023-04-23T08:51:05;97109.19;;;19.15;47.42
36630;BME280;36256;42.154;23.002;2023-04-23T08:53:33;97110.19;;;19.01;47.19
36630;BME280;36256;42.154;23.002;2023-04-23T08:56:00;97113.81;;;19.07;47.19
36630;BME280;36256;42.154;23.002;2023-04-23T08:58:28;97114.34;;;19.22;48.27
36630;BME280;36256;42.154;23.002;2023-04-23T09:00:56;97111.22;;;19.20;51.38
36630;BME280;36256;42.154;23.002;2023-04-23T09:03:23;97098.81;;;19.01;48.60
36630;BME280;36256;42.154;23.002;2023-04-23T09:05:50;97104.03;;;19.41;48.42
36630;BME280;36256;42.154;23.002;2023-04-23T09:08:20;97093.13;;;19.78;46.75
36630;BME280;36256;42.154;23.002;2023-04-23T09:10:46;97094.63;;;20.01;46.60
36630;BME280;36256;42.154;23.002;2023-04-23T09:13:13;97073.44;;;19.91;45.62
36630;BME280;36256;42.154;23.002;2023-04-23T09:15:40;97073.97;;;19.73;45.92
36630;BME280;36256;42.154;23.002;2023-04-23T09:18:09;97068.84;;;19.44;46.35
36630;BME280;36256;42.154;23.002;2023-04-23T09:20:36;97074.53;;;19.55;46.50
36630;BME280;36256;42.154;23.002;2023-04-23T09:23:05;97066.25;;;19.57;46.45
36630;BME280;36256;42.154;23.002;2023-04-23T09:25:32;97076.56;;;19.60;48.37
36630;BME280;36256;42.154;23.002;2023-04-23T09:27:59;97067.25;;;19.76;47.29
36630;BME280;36256;42.154;23.002;2023-04-23T09:30:28;97064.66;;;19.73;45.46
36630;BME280;36256;42.154;23.002;2023-04-23T09:32:54;97051.69;;;19.88;46.38
36630;BME280;36256;42.154;23.002;2023-04-23T09:35:21;97054.25;;;19.97;42.94
36630;BME280;36256;42.154;23.002;2023-04-23T09:37:49;97038.59;;;20.26;44.50
36630;BME280;36256;42.154;23.002;2023-04-23T09:40:18;97020.44;;;20.34;40.18
36630;BME280;36256;42.154;23.002;2023-04-23T09:42:46;97069.56;;;20.52;46.56
36630;BME280;36256;42.154;23.002;2023-04-23T09:45:13;97063.22;;;20.75;47.48
36630;BME280;36256;42.154;23.002;2023-04-23T09:47:40;97055.50;;;20.65;44.45
36630;BME280;36256;42.154;23.002;2023-04-23T09:50:08;97046.31;;;20.37;43.08
36630;BME280;36256;42.154;23.002;2023-04-23T09:52:37;97038.38;;;20.18;41.29
36630;BME280;36256;42.154;23.002;2023-04-23T09:55:04;97037.63;;;20.12;42.63
36630;BME280;36256;42.154;23.002;2023-04-23T09:57:38;97043.41;;;20.48;44.16
36630;BME280;36256;42.154;23.002;2023-04-23T10:00:17;97038.69;;;19.98;39.74
36630;BME280;36256;42.154;23.002;2023-04-23T10:02:45;97021.25;;;20.29;37.40
36630;BME280;36256;42.154;23.002;2023-04-23T10:05:19;97025.91;;;20.68;41.69
36630;BME280;36256;42.154;23.002;2023-04-23T10:07:53;97029.84;;;21.00;38.63
36630;BME280;36256;42.154;23.002;2023-04-23T10:10:20;97022.84;;;21.01;38.67
36630;BME280;36256;42.154;23.002;2023-04-23T10:12:46;97008.31;;;20.64;38.12
36630;BME280;36256;42.154;23.002;2023-04-23T10:15:20;97002.97;;;20.55;39.24
36630;BME280;36256;42.154;23.002;2023-04-23T10:17:48;96998.97;;;20.69;38.34
36630;BME280;36256;42.154;23.002;2023-04-23T10:20:16;96994.06;;;20.64;37.98
36630;BME280;36256;42.154;23.002;2023-04-23T10:22:43;96987.38;;;20.61;39.03
36630;BME280;36256;42.154;23.002;2023-04-23T10:25:11;96979.81;;;20.64;38.25
36630;BME280;36256;42.154;23.002;2023-04-23T10:27:38;96976.16;;;20.69;38.88
36630;BME280;36256;42.154;23.002;2023-04-23T10:30:17;96980.94;;;20.90;38.29
36630;BME280;36256;42.154;23.002;2023-04-23T10:32:45;96967.59;;;21.04;35.69
36630;BME280;36256;42.154;23.002;2023-04-23T10:35:13;96967.53;;;21.39;36.08
36630;BME280;36256;42.154;23.002;2023-04-23T10:37:40;96966.69;;;21.44;34.86
36630;BME280;36256;42.154;23.002;2023-04-23T10:40:08;96966.16;;;21.22;36.12
36630;BME280;36256;42.154;23.002;2023-04-23T10:42:37;96969.16;;;21.05;34.63
36630;BME280;36256;42.154;23.002;2023-04-23T10:45:22;96964.88;;;21.17;38.38
36630;BME280;36256;42.154;23.002;2023-04-23T10:47:52;96987.38;;;20.91;34.38
36630;BME280;36256;42.154;23.002;2023-04-23T10:52:46;96982.34;;;20.73;36.60
36630;BME280;36256;42.154;23.002;2023-04-23T10:55:17;96983.13;;;20.73;32.81
36630;BME280;36256;42.154;23.002;2023-04-23T10:57:54;96994.84;;;21.05;36.06
36630;BME280;36256;42.154;23.002;2023-04-23T11:00:22;96986.06;;;21.27;37.04
36630;BME280;36256;42.154;23.002;2023-04-23T11:02:49;96988.34;;;21.58;39.26
36630;BME280;36256;42.154;23.002;2023-04-23T11:05:16;96982.44;;;21.99;37.10
36630;BME280;36256;42.154;23.002;2023-04-23T11:07:44;96987.25;;;22.28;38.97
36630;BME280;36256;42.154;23.002;2023-04-23T11:10:57;96980.69;;;22.33;34.85
36630;BME280;36256;42.154;23.002;2023-04-23T11:13:27;96978.78;;;21.99;38.72
36630;BME280;36256;42.154;23.002;2023-04-23T11:19:00;96977.03;;;21.47;37.71
36630;BME280;36256;42.154;23.002;2023-04-23T11:24:14;96974.31;;;21.60;33.98
36630;BME280;36256;42.154;23.002;2023-04-23T11:26:41;96978.16;;;21.39;40.36
36630;BME280;36256;42.154;23.002;2023-04-23T11:29:07;96975.69;;;21.54;33.46
36630;BME280;36256;42.154;23.002;2023-04-23T11:31:37;96975.72;;;21.72;34.30
36630;BME280;36256;42.154;23.002;2023-04-23T11:34:16;96978.53;;;21.54;34.68
36630;BME280;36256;42.154;23.002;2023-04-23T11:36:43;96971.81;;;21.51;34.54
36630;BME280;36256;42.154;23.002;2023-04-23T11:39:09;96968.88;;;21.57;33.58
36630;BME280;36256;42.154;23.002;2023-04-23T11:41:37;96970.00;;;21.72;35.64
36630;BME280;36256;42.154;23.002;2023-04-23T11:44:04;96960.28;;;21.62;37.04
36630;BME280;36256;42.154;23.002;2023-04-23T11:46:31;96959.31;;;21.54;34.35
36630;BME280;36256;42.154;23.002;2023-04-23T11:48:58;96954.44;;;21.49;34.48
36630;BME280;36256;42.154;23.002;2023-04-23T11:51:25;96949.81;;;21.22;35.90
36630;BME280;36256;42.154;23.002;2023-04-23T11:53:52;96950.47;;;21.04;35.11
36630;BME280;36256;42.154;23.002;2023-04-23T11:56:18;96948.53;;;20.88;35.66
36630;BME280;36256;42.154;23.002;2023-04-23T11:58:45;96949.16;;;20.75;35.64
36630;BME280;36256;42.154;23.002;2023-04-23T12:01:11;96955.09;;;20.77;36.35
36630;BME280;36256;42.154;23.002;2023-04-23T12:03:38;96955.41;;;20.74;35.28
36630;BME280;36256;42.154;23.002;2023-04-23T12:06:05;96949.78;;;20.63;35.32
36630;BME280;36256;42.154;23.002;2023-04-23T12:08:32;96942.13;;;20.76;35.00
36630;BME280;36256;42.154;23.002;2023-04-23T12:11:01;96937.69;;;20.81;35.33
36630;BME280;36256;42.154;23.002;2023-04-23T12:13:28;96942.84;;;20.82;35.49
36630;BME280;36256;42.154;23.002;2023-04-23T12:15:59;96937.22;;;20.77;35.88
36630;BME280;36256;42.154;23.002;2023-04-23T12:18:33;96940.00;;;20.82;35.48
36630;BME280;36256;42.154;23.002;2023-04-23T12:21:04;96936.16;;;20.80;37.42
36630;BME280;36256;42.154;23.002;2023-04-23T12:23:31;96932.53;;;20.79;35.02
36630;BME280;36256;42.154;23.002;2023-04-23T12:26:01;96936.16;;;20.80;34.84
36630;BME280;36256;42.154;23.002;2023-04-23T12:28:30;96926.19;;;20.92;34.92
36630;BME280;36256;42.154;23.002;2023-04-23T12:30:58;96925.34;;;21.02;35.51
36630;BME280;36256;42.154;23.002;2023-04-23T12:33:29;96931.22;;;21.10;35.96
36630;BME280;36256;42.154;23.002;2023-04-23T12:35:56;96924.81;;;21.04;37.06
36630;BME280;36256;42.154;23.002;2023-04-23T12:38:26;96922.78;;;20.99;36.05
36630;BME280;36256;42.154;23.002;2023-04-23T12:40:54;96919.19;;;20.93;34.58
36630;BME280;36256;42.154;23.002;2023-04-23T12:43:21;96919.44;;;20.95;37.81
36630;BME280;36256;42.154;23.002;2023-04-23T12:45:48;96920.00;;;20.88;35.49
36630;BME280;36256;42.154;23.002;2023-04-23T12:48:15;96916.53;;;20.71;34.23
36630;BME280;36256;42.154;23.002;2023-04-23T12:50:41;96921.44;;;20.76;35.90
36630;BME280;36256;42.154;23.002;2023-04-23T12:53:08;96918.22;;;20.85;36.45
36630;BME280;36256;42.154;23.002;2023-04-23T12:55:34;96920.91;;;20.72;34.99
36630;BME280;36256;42.154;23.002;2023-04-23T12:58:01;96921.66;;;20.78;37.22
36630;BME280;36256;42.154;23.002;2023-04-23T13:00:27;96927.38;;;20.78;35.50